Petersburg, Illinois
Current Conditions -  °F | °C
As of 11:15 AM on Thursday 18 Dec 2014 (Local Time) from KSPI Reporting Station
Haze Haze  
Wind Chill: 28°   Ceiling: 900
Heat Index: 28°   Visibility: 6mi
Dew Point: 24°   Wind: 0mph
Humidity: 85%   Direction: NA
Pressure: 30.3"   Gusts: NA
Location:  40.01°N, 89.85°W
Report Text: KSPI 181715Z 00000KT 6SM BR BKN009 BKN014 OVC070 M02/M04 A3030 RMK AO2 T10221044
Loading
Personal Weather Stations






























Interactive Weather Map New forecast layout! Learn more

10-Day Weather Forecast

Advertisements
Track Severe Weather on mobile